Terminal Aerodrome Forecast
Issued by NWS San Angelo, TX

Home | Current Version | Previous Version | Text Only | Print | Product List | Glossary On
Versions: 1 2 3 4 5 6 7 8 9 10 11 12
000
FTUS44 KSJT 291100
TAFABI
TAF
KABI 291124Z 2912/3012 21008KT P6SM SCT250
     FM291300 02011KT P6SM BKN250
     FM291600 02017G26KT P6SM BKN150
     FM300100 03010KT P6SM BKN080=

USA.gov is the U.S. government's official web portal to all federal, state and local government web resources and services.